Saint Jacob, Illinois
Current Conditions -  °F | °C
As of 1:58 AM on Sunday 23 Nov 2014 (Local Time) from KBLV Reporting Station
Overcast Overcast  
Wind Chill: 52°   Ceiling: 11000
Heat Index: 52°   Visibility: 10mi
Dew Point: 43°   Wind: 9mph
Humidity: 72%   Direction: 170°S
Pressure: 29.83"   Gusts: NA
Location:  38.71°N, 89.77°W
Report Text: KBLV 230758Z AUTO 17008KT 10SM OVC110 11/06 A2983 RMK AO2 SLP104 T01100062
Loading
Personal Weather Stations






























Interactive Weather Map New forecast layout! Learn more

10-Day Weather Forecast

Advertisements
Track Severe Weather on mobile